Time;durP1;ratioP1;P1;durP2;ratioP2;P2;SDS_P1;SDS_P2;PMS_P1;PMS_P2;Temp;Humidity;BMP_temperature;BMP_pressure;BME280_temperature;BME280_humidity;BME280_pressure;Samples;Min_cycle;Max_cycle;Signal;HPM_P1;HPM_P2
2022/04/29 00:00:08;;;;;;;5.18;3.58;;;;;;;5.54;95.06;99453.28;5063569;28;20025;-66
2022/04/29 00:02:35;;;;;;;5.97;4.00;;;;;;;5.64;96.48;99457.75;5063487;28;20021;-66
2022/04/29 00:05:01;;;;;;;5.70;3.55;;;;;;;5.70;95.45;99448.25;5063800;28;20025;-66
2022/04/29 00:07:26;;;;;;;6.25;3.85;;;;;;;5.67;95.12;99445.59;5063492;28;20025;-66
2022/04/29 00:09:52;;;;;;;5.53;3.53;;;;;;;5.78;94.40;99453.56;5063470;28;20186;-66
2022/04/29 00:12:19;;;;;;;4.18;2.83;;;;;;;5.75;93.44;99449.19;5063543;28;20025;-66
2022/04/29 00:14:44;;;;;;;5.03;3.60;;;;;;;5.62;93.97;99456.84;5067357;28;20029;-66
2022/04/29 00:17:10;;;;;;;4.78;2.90;;;;;;;5.61;94.34;99460.31;5067343;28;20020;-66
2022/04/29 00:19:35;;;;;;;3.72;2.80;;;;;;;5.61;94.93;99449.88;5067423;28;20020;-66
2022/04/29 00:22:01;;;;;;;6.28;3.70;;;;;;;5.74;94.49;99457.00;5067217;28;20344;-66
2022/04/29 00:24:26;;;;;;;4.07;2.90;;;;;;;5.62;94.52;99447.28;5067123;28;20039;-66
2022/04/29 00:26:53;;;;;;;4.45;2.95;;;;;;;5.65;94.69;99456.88;5067109;28;20021;-66
2022/04/29 00:29:19;;;;;;;5.47;3.55;;;;;;;5.46;94.27;99449.66;5067040;28;20036;-66
2022/04/29 00:31:44;;;;;;;5.90;3.58;;;;;;;5.34;95.20;99449.50;5068750;28;20025;-66
2022/04/29 00:34:10;;;;;;;5.80;3.55;;;;;;;5.26;95.79;99451.13;5087038;28;20052;-66
2022/04/29 00:36:35;;;;;;;5.10;3.50;;;;;;;5.37;96.04;99445.19;5086827;28;20036;-66
2022/04/29 00:39:01;;;;;;;6.70;4.07;;;;;;;5.44;96.11;99446.19;5086935;28;20016;-66
2022/04/29 00:41:27;;;;;;;6.55;3.60;;;;;;;5.47;95.71;99446.22;5087005;28;20047;-66
2022/04/29 00:44:03;;;;;;;6.25;3.28;;;;;;;5.45;95.66;99448.81;5086862;28;20025;-66
2022/04/29 00:46:32;;;;;;;4.75;3.03;;;;;;;5.36;96.10;99447.78;5087102;28;20020;-66
2022/04/29 00:48:57;;;;;;;7.38;3.20;;;;;;;5.36;96.08;99442.56;5086613;28;20215;-66
2022/04/29 00:51:23;;;;;;;5.68;3.47;;;;;;;5.43;95.30;99433.97;5086692;28;20020;-66
2022/04/29 00:53:49;;;;;;;6.18;2.97;;;;;;;5.39;95.51;99432.19;5086672;28;20031;-66
2022/04/29 00:56:17;;;;;;;5.78;3.60;;;;;;;5.38;95.73;99446.09;5086654;28;20020;-66
2022/04/29 00:58:53;;;;;;;5.57;3.15;;;;;;;5.44;95.71;99435.75;5071103;28;20021;-66
2022/04/29 01:01:21;;;;;;;5.47;3.33;;;;;;;5.46;95.79;99439.22;5066656;28;20021;-66
2022/04/29 01:03:49;;;;;;;4.95;3.28;;;;;;;5.51;94.77;99440.19;5068114;28;20024;-66
2022/04/29 01:06:14;;;;;;;6.18;3.38;;;;;;;5.34;94.25;99436.44;5084816;28;20020;-66
2022/04/29 01:08:40;;;;;;;7.60;4.63;;;;;;;5.28;95.18;99431.16;5086453;28;20021;-66
2022/04/29 01:11:05;;;;;;;9.45;4.07;;;;;;;5.40;95.29;99428.69;5086426;28;20047;-66
2022/04/29 01:13:31;;;;;;;4.97;3.40;;;;;;;5.25;94.52;99429.38;5086398;28;20020;-66
2022/04/29 01:15:57;;;;;;;5.15;3.58;;;;;;;5.22;95.72;99428.47;5086250;28;20188;-66
2022/04/29 01:18:24;;;;;;;7.85;3.80;;;;;;;5.25;95.77;99423.28;5086127;28;20032;-66
2022/04/29 01:21:01;;;;;;;5.90;3.83;;;;;;;5.27;95.83;99422.44;5086206;28;20087;-66
2022/04/29 01:23:28;;;;;;;14.50;3.65;;;;;;;5.21;94.91;99421.47;5086172;28;20020;-66
2022/04/29 01:25:54;;;;;;;5.03;3.83;;;;;;;5.09;95.18;99416.94;5081885;28;20041;-66
2022/04/29 01:28:20;;;;;;;4.78;3.30;;;;;;;5.06;95.85;99416.91;5065981;28;20062;-66
2022/04/29 01:30:46;;;;;;;4.68;3.10;;;;;;;5.07;96.48;99412.56;5065917;28;20043;-66
2022/04/29 01:33:13;;;;;;;7.18;3.78;;;;;;;5.01;96.21;99407.25;5065903;28;20025;-66
2022/04/29 01:35:39;;;;;;;5.68;3.63;;;;;;;4.99;96.03;99403.75;5065894;28;20108;-66
2022/04/29 01:38:04;;;;;;;4.10;3.03;;;;;;;5.09;95.80;99403.06;5066860;28;20193;-66
2022/04/29 01:40:30;;;;;;;5.60;3.47;;;;;;;4.99;95.92;99403.75;5065718;28;20044;-66
2022/04/29 01:42:56;;;;;;;7.57;3.30;;;;;;;4.99;96.12;99406.34;5065972;28;20016;-66
2022/04/29 01:45:21;;;;;;;8.35;3.85;;;;;;;5.01;96.02;99402.03;5065638;28;20220;-66
2022/04/29 01:47:47;;;;;;;8.70;4.40;;;;;;;5.08;96.69;99401.28;5065622;28;20025;-66
2022/04/29 01:50:12;;;;;;;5.85;4.32;;;;;;;5.13;96.54;99403.13;5065786;28;20054;-66
2022/04/29 01:52:38;;;;;;;7.03;4.10;;;;;;;4.78;96.24;99393.88;5065539;28;20032;-66
2022/04/29 01:55:03;;;;;;;10.77;4.35;;;;;;;4.78;97.92;99390.41;5065504;28;20087;-66
2022/04/29 01:57:29;;;;;;;5.22;3.65;;;;;;;4.76;97.51;99399.91;5065523;28;20025;-66
2022/04/29 01:59:54;;;;;;;8.85;4.13;;;;;;;4.87;97.95;99398.38;5065270;28;20031;-66
2022/04/29 02:02:21;;;;;;;4.78;3.28;;;;;;;4.94;96.79;99389.78;5065469;28;20021;-66
2022/04/29 02:04:47;;;;;;;4.93;3.63;;;;;;;4.83;97.49;99401.75;5065315;28;20247;-66
2022/04/29 02:07:12;;;;;;;6.32;3.97;;;;;;;4.83;97.30;99399.16;5065252;28;20083;-66
2022/04/29 02:09:38;;;;;;;4.95;3.28;;;;;;;4.85;96.99;99393.13;5067362;28;20028;-66
2022/04/29 02:12:04;;;;;;;7.10;3.92;;;;;;;4.80;96.24;99386.94;5085130;28;20020;-66
2022/04/29 02:14:31;;;;;;;5.13;3.33;;;;;;;4.86;96.84;99388.75;5083972;28;20020;-66
2022/04/29 02:16:57;;;;;;;5.93;3.80;;;;;;;4.70;96.09;99384.16;5085147;28;20020;-66
2022/04/29 02:19:24;;;;;;;6.22;3.42;;;;;;;4.69;96.79;99378.09;5085102;28;20020;-66
2022/04/29 02:21:50;;;;;;;6.53;3.13;;;;;;;4.78;96.47;99378.22;5084930;28;20024;-66
2022/04/29 02:24:16;;;;;;;6.05;3.53;;;;;;;4.62;96.45;99365.78;5084870;28;20035;-66
2022/04/29 02:26:41;;;;;;;5.88;3.70;;;;;;;4.55;96.21;99368.31;5072062;28;20052;-66
2022/04/29 02:29:09;;;;;;;5.22;3.03;;;;;;;4.58;96.58;99365.75;5064884;28;20017;-66
2022/04/29 02:31:35;;;;;;;5.32;3.80;;;;;;;4.60;96.36;99371.84;5064828;28;20320;-66
2022/04/29 02:34:01;;;;;;;7.13;4.28;;;;;;;4.60;96.80;99364.03;5064794;28;20021;-66
2022/04/29 02:36:26;;;;;;;5.85;3.72;;;;;;;4.60;96.76;99366.63;5064058;28;20137;-66
2022/04/29 02:38:52;;;;;;;4.88;3.50;;;;;;;4.61;97.36;99368.38;5079579;28;20036;-66
2022/04/29 02:41:17;;;;;;;6.88;4.30;;;;;;;4.61;97.29;99371.00;5084626;28;20024;-66
2022/04/29 02:43:43;;;;;;;8.13;4.13;;;;;;;4.50;97.13;99369.09;5084566;28;20279;-66
2022/04/29 02:46:09;;;;;;;5.15;3.70;;;;;;;4.61;96.39;99373.59;5084750;28;20312;-66
2022/04/29 02:48:34;;;;;;;6.68;3.50;;;;;;;4.42;96.53;99368.09;5066372;28;20223;-66
2022/04/29 02:51:00;;;;;;;5.75;3.47;;;;;;;4.27;97.41;99373.06;5063284;28;20013;-66
2022/04/29 02:53:25;;;;;;;6.53;3.90;;;;;;;4.30;97.99;99373.09;5064459;28;20028;-66
2022/04/29 02:55:51;;;;;;;5.80;3.30;;;;;;;4.37;98.11;99374.97;5064354;28;20024;-66
2022/04/29 02:58:17;;;;;;;6.38;3.63;;;;;;;4.37;97.94;99374.97;5064321;28;20028;-66
2022/04/29 03:00:42;;;;;;;6.50;3.58;;;;;;;4.30;98.03;99373.09;5064181;28;20025;-66
2022/04/29 03:03:08;;;;;;;6.25;3.55;;;;;;;4.26;97.93;99386.94;5064433;28;20088;-66
2022/04/29 03:05:34;;;;;;;6.38;3.45;;;;;;;4.28;96.98;99377.41;5064208;28;20021;-66
2022/04/29 03:07:59;;;;;;;5.90;3.25;;;;;;;4.29;96.98;99371.38;5064240;28;20020;-66
2022/04/29 03:10:25;;;;;;;6.88;3.85;;;;;;;4.25;97.22;99374.75;5064204;28;20383;-66
2022/04/29 03:12:51;;;;;;;6.32;3.72;;;;;;;4.27;97.70;99375.66;5064060;28;20029;-66
2022/04/29 03:15:17;;;;;;;5.13;3.30;;;;;;;4.21;96.98;99372.94;5064305;28;20216;-66
2022/04/29 03:20:36;;;;;;;5.28;3.28;;;;;;;4.22;96.80;99364.31;5080860;28;20051;-66
2022/04/29 03:23:02;;;;;;;6.18;4.22;;;;;;;4.18;95.70;99369.44;5084076;28;20028;-66
2022/04/29 03:25:28;;;;;;;5.82;3.40;;;;;;;4.20;96.02;99365.09;5084280;28;20024;-66
2022/04/29 03:27:53;;;;;;;5.40;3.35;;;;;;;4.10;96.17;99361.47;5083999;28;20121;-66
2022/04/29 03:30:18;;;;;;;4.90;3.28;;;;;;;4.15;96.58;99357.19;5083968;28;20024;-66
2022/04/29 03:32:55;;;;;;;5.35;3.47;;;;;;;4.11;96.99;99359.72;5083947;28;20043;-66
2022/04/29 03:35:21;;;;;;;4.70;3.25;;;;;;;4.08;96.25;99355.34;5083785;28;20044;-66
2022/04/29 03:37:51;;;;;;;5.28;3.55;;;;;;;3.87;96.27;99349.78;5083791;28;20040;-66
2022/04/29 03:40:21;;;;;;;7.20;4.20;;;;;;;3.88;96.99;99346.31;5084019;28;20028;-66
2022/04/29 03:42:48;;;;;;;6.00;4.28;;;;;;;3.67;96.91;99345.06;5083836;28;20043;-66
2022/04/29 03:45:13;;;;;;;7.43;3.67;;;;;;;3.64;97.71;99342.38;5083847;28;20028;-66
2022/04/29 03:47:39;;;;;;;5.05;3.03;;;;;;;3.81;98.56;99347.06;5084523;28;20024;-66
2022/04/29 03:50:05;;;;;;;5.63;3.58;;;;;;;3.73;97.30;99342.53;5087913;28;20040;-66
2022/04/29 03:52:31;;;;;;;6.15;3.55;;;;;;;3.75;97.27;99344.34;5087363;28;20027;-66
2022/04/29 03:54:56;;;;;;;5.10;3.35;;;;;;;3.73;96.91;99346.03;5087792;28;20021;-66
2022/04/29 03:57:22;;;;;;;6.30;3.65;;;;;;;3.60;96.62;99343.16;5087797;28;20021;-66
2022/04/29 03:59:49;;;;;;;7.63;3.40;;;;;;;3.65;97.25;99339.81;5087636;28;20083;-66
2022/04/29 04:02:14;;;;;;;7.00;3.72;;;;;;;3.72;96.93;99349.47;5087587;28;20033;-66
2022/04/29 04:04:40;;;;;;;5.70;3.50;;;;;;;3.75;95.96;99349.53;5087657;28;20028;-66
2022/04/29 04:07:05;;;;;;;5.63;3.70;;;;;;;3.74;96.09;99358.19;5087232;28;20028;-66
2022/04/29 04:09:31;;;;;;;11.52;4.03;;;;;;;3.60;97.11;99364.84;5087774;28;20051;-66
2022/04/29 04:11:56;;;;;;;8.05;4.03;;;;;;;3.61;97.19;99366.59;5087472;28;20024;-66
2022/04/29 04:14:22;;;;;;;5.35;3.65;;;;;;;3.63;98.27;99364.91;5087411;28;20024;-66
2022/04/29 04:16:48;;;;;;;6.30;3.83;;;;;;;3.68;97.10;99362.41;5087354;28;20107;-66
2022/04/29 04:19:13;;;;;;;8.18;4.05;;;;;;;3.63;97.78;99374.44;5087492;28;20021;-66
2022/04/29 04:21:39;;;;;;;5.45;3.33;;;;;;;3.64;97.03;99371.88;5087263;28;20020;-66
2022/04/29 04:24:06;;;;;;;3.88;3.08;;;;;;;3.73;96.94;99382.47;5074426;28;20047;-66
2022/04/29 04:26:32;;;;;;;7.00;4.13;;;;;;;3.64;96.38;99381.44;5067203;28;20025;-66
2022/04/29 04:28:58;;;;;;;6.07;3.50;;;;;;;3.46;96.90;99392.34;5067426;28;20044;-66
2022/04/29 04:31:24;;;;;;;6.75;3.95;;;;;;;3.34;97.30;99389.47;5065586;28;20197;-66
2022/04/29 04:33:51;;;;;;;6.10;3.90;;;;;;;3.53;98.16;99394.22;5082242;28;20047;-66
2022/04/29 04:36:16;;;;;;;6.97;4.10;;;;;;;3.72;97.09;99396.34;5079280;28;20097;-66
2022/04/29 04:38:42;;;;;;;6.18;3.95;;;;;;;3.71;97.00;99391.09;5073140;28;20028;-66
2022/04/29 04:41:08;;;;;;;6.75;3.28;;;;;;;3.82;97.30;99398.28;5085992;28;20020;-66
2022/04/29 04:43:34;;;;;;;4.97;3.13;;;;;;;3.95;96.20;99389.84;5082405;28;20365;-66
2022/04/29 04:45:59;;;;;;;5.18;3.22;;;;;;;4.07;95.30;99395.28;5086085;28;20017;-66
2022/04/29 04:48:25;;;;;;;4.35;3.20;;;;;;;4.08;95.43;99399.63;5085850;28;20285;-66
2022/04/29 04:50:50;;;;;;;9.98;3.83;;;;;;;4.16;94.29;99395.47;5086091;28;20040;-66
2022/04/29 04:53:16;;;;;;;5.53;3.60;;;;;;;4.22;94.97;99398.16;5085995;28;20024;-66
2022/04/29 04:55:41;;;;;;;6.15;3.92;;;;;;;4.31;94.74;99397.44;5084969;28;20031;-66
2022/04/29 04:58:08;;;;;;;6.07;3.50;;;;;;;4.42;93.84;99398.50;5084869;28;20051;-66
2022/04/29 05:00:34;;;;;;;5.57;3.45;;;;;;;4.51;94.16;99403.88;5085661;28;20289;-66
2022/04/29 05:02:59;;;;;;;5.60;3.70;;;;;;;4.58;93.42;99405.72;5072505;28;20024;-66
2022/04/29 05:05:25;;;;;;;8.18;4.07;;;;;;;4.60;92.78;99408.34;5065500;28;20084;-66
2022/04/29 05:07:50;;;;;;;4.93;3.40;;;;;;;4.56;93.55;99407.44;5065477;28;20326;-66
2022/04/29 05:10:18;;;;;;;5.68;3.35;;;;;;;4.72;93.56;99413.78;5065259;28;20367;-66
2022/04/29 05:12:45;;;;;;;5.95;3.97;;;;;;;4.72;94.13;99413.78;5065394;28;20017;-66
2022/04/29 05:15:12;;;;;;;7.28;4.20;;;;;;;4.91;94.06;99410.59;5065289;28;20242;-66
2022/04/29 05:17:40;;;;;;;5.18;3.47;;;;;;;5.12;93.54;99416.16;5065278;28;20028;-66
2022/04/29 05:20:08;;;;;;;4.75;3.03;;;;;;;5.37;93.18;99418.22;5065141;28;20308;-66
2022/04/29 05:22:34;;;;;;;4.20;3.33;;;;;;;5.53;92.17;99414.94;5064782;28;20039;-66
2022/04/29 05:24:59;;;;;;;6.68;3.53;;;;;;;6.05;90.83;99420.84;5065169;28;20026;-66
2022/04/29 05:27:25;;;;;;;6.22;3.60;;;;;;;6.57;89.33;99424.84;5065087;28;20136;-66
2022/04/29 05:29:50;;;;;;;6.43;3.65;;;;;;;7.16;87.82;99426.22;5065002;28;20128;-66
2022/04/29 05:32:16;;;;;;;5.75;3.38;;;;;;;7.59;85.31;99424.72;5064982;28;20028;-66
2022/04/29 05:34:42;;;;;;;6.45;3.85;;;;;;;7.82;86.19;99429.16;5074769;28;20028;-66
2022/04/29 05:37:08;;;;;;;6.68;3.58;;;;;;;7.66;86.88;99422.13;5084568;28;20048;-66
2022/04/29 05:42:23;;;;;;;6.68;3.58;;;;;;;7.49;86.02;99421.16;5084878;28;20019;-66
2022/04/29 05:44:49;;;;;;;4.90;3.42;;;;;;;7.33;86.23;99421.94;5084833;28;20257;-66
2022/04/29 05:47:15;;;;;;;4.78;3.33;;;;;;;7.36;86.51;99421.06;5084748;28;20024;-66
2022/04/29 05:49:41;;;;;;;5.35;3.95;;;;;;;7.46;86.59;99423.75;5084298;28;20016;-66
2022/04/29 05:52:08;;;;;;;6.35;3.67;;;;;;;7.70;86.10;99426.53;5084669;28;20085;-66
2022/04/29 05:54:34;;;;;;;8.20;4.32;;;;;;;7.87;86.42;99426.56;5084590;28;20021;-66
2022/04/29 05:57:01;;;;;;;8.00;3.60;;;;;;;8.10;86.55;99415.28;5084795;28;20020;-66
2022/04/29 05:59:27;;;;;;;6.63;3.85;;;;;;;8.44;85.60;99422.41;5084442;28;20021;-66
2022/04/29 06:01:53;;;;;;;9.50;4.45;;;;;;;8.80;87.48;99419.81;5078814;28;20312;-66
2022/04/29 06:04:18;;;;;;;6.85;3.47;;;;;;;9.37;85.79;99420.63;5064411;28;20052;-66
2022/04/29 06:06:44;;;;;;;7.13;4.00;;;;;;;9.89;83.93;99422.19;5074220;28;20035;-66
2022/04/29 06:09:09;;;;;;;6.00;4.13;;;;;;;10.69;81.22;99425.28;5084299;28;20013;-66
2022/04/29 06:11:34;;;;;;;6.90;4.20;;;;;;;11.41;79.22;99429.91;5083340;28;20085;-66
2022/04/29 06:14:00;;;;;;;7.72;4.20;;;;;;;11.88;76.88;99411.84;5083939;28;20246;-66
2022/04/29 06:16:26;;;;;;;6.85;4.10;;;;;;;12.31;75.31;99418.28;5083466;28;20024;-66
2022/04/29 06:18:51;;;;;;;6.50;4.47;;;;;;;12.16;74.94;99415.00;5084324;28;20126;-66
2022/04/29 06:21:18;;;;;;;6.88;3.78;;;;;;;11.60;76.64;99414.78;5084065;28;20087;-66
2022/04/29 06:23:44;;;;;;;8.75;4.75;;;;;;;10.94;78.24;99417.19;5084023;28;20048;-66
2022/04/29 06:26:10;;;;;;;6.75;3.88;;;;;;;10.63;79.92;99420.06;5073181;28;20224;-67
2022/04/29 06:28:36;;;;;;;7.07;3.80;;;;;;;10.57;80.31;99414.84;5075290;28;20028;-66
2022/04/29 06:31:01;;;;;;;5.72;3.60;;;;;;;10.64;80.32;99414.78;5083895;28;20031;-66
2022/04/29 06:33:30;;;;;;;6.18;3.92;;;;;;;10.31;82.84;99416.75;5083832;28;20373;-66
2022/04/29 06:35:57;;;;;;;8.55;3.95;;;;;;;10.63;82.61;99414.78;5071014;28;20076;-66
2022/04/29 06:38:23;;;;;;;8.32;4.13;;;;;;;10.77;82.79;99419.09;5063749;28;20062;-66
2022/04/29 06:40:48;;;;;;;5.65;3.63;;;;;;;10.82;83.06;99422.53;5063451;28;20032;-66
2022/04/29 06:43:14;;;;;;;7.22;4.50;;;;;;;10.91;83.35;99418.97;5063733;28;20077;-66
2022/04/29 06:45:39;;;;;;;6.88;4.25;;;;;;;11.03;83.31;99421.50;5063602;28;20033;-66
2022/04/29 06:48:05;;;;;;;5.68;3.45;;;;;;;11.10;83.21;99427.59;5063540;28;20023;-66
2022/04/29 06:50:31;;;;;;;10.13;4.45;;;;;;;11.18;83.29;99431.91;5063543;28;20025;-66
2022/04/29 06:52:57;;;;;;;6.93;4.28;;;;;;;11.26;83.04;99430.06;5063459;28;20062;-66
2022/04/29 06:55:23;;;;;;;7.07;3.60;;;;;;;11.39;83.57;99431.69;5063070;28;20028;-66
2022/04/29 06:57:48;;;;;;;9.00;4.80;;;;;;;11.55;83.48;99437.69;5063369;28;20099;-66
2022/04/29 07:00:15;;;;;;;7.00;4.45;;;;;;;11.52;83.37;99433.31;5066878;28;20028;-66
2022/04/29 07:02:41;;;;;;;7.85;4.68;;;;;;;11.73;83.18;99427.84;5077859;28;20376;-66
2022/04/29 07:05:08;;;;;;;5.68;3.63;;;;;;;11.87;82.70;99425.91;5063551;28;20190;-66
2022/04/29 07:07:33;;;;;;;7.55;4.38;;;;;;;12.03;82.80;99427.50;5068092;28;20017;-66
2022/04/29 07:09:59;;;;;;;11.82;4.97;;;;;;;12.09;81.88;99422.13;5063438;28;20088;-66
2022/04/29 07:12:24;;;;;;;5.30;4.05;;;;;;;12.40;82.19;99422.56;5070427;28;20047;-66
2022/04/29 07:14:53;;;;;;;13.07;5.60;;;;;;;12.42;82.33;99432.22;5072323;28;20024;-66
2022/04/29 07:17:20;;;;;;;8.95;5.25;;;;;;;12.71;80.98;99424.75;5063131;28;20052;-66
2022/04/29 07:19:46;;;;;;;7.82;5.43;;;;;;;13.21;81.31;99425.72;5063283;28;20021;-66
2022/04/29 07:22:12;;;;;;;6.57;5.22;;;;;;;13.77;77.67;99433.50;5062437;28;20082;-66
2022/04/29 07:24:37;;;;;;;8.60;4.95;;;;;;;14.05;77.12;99429.41;5065624;28;20031;-66
2022/04/29 07:27:03;;;;;;;7.80;5.38;;;;;;;14.30;75.32;99425.38;5083066;28;20020;-66
2022/04/29 07:29:29;;;;;;;8.73;5.45;;;;;;;14.46;75.29;99432.94;5083030;28;20312;-66
2022/04/29 07:31:54;;;;;;;8.77;5.70;;;;;;;14.40;75.33;99421.63;5081359;28;20052;-66
2022/04/29 07:41:44;;;;;;;8.35;5.55;;;;;;;14.33;77.12;99423.50;5066989;28;20212;-66
2022/04/29 07:42:35;;;;;;;8.15;5.28;;;;;;;14.31;76.19;99421.81;5068141;28;20035;-66
2022/04/29 07:45:01;;;;;;;8.57;5.63;;;;;;;14.40;75.34;99432.22;5073973;28;20029;-66
2022/04/29 07:47:27;;;;;;;9.15;6.05;;;;;;;14.31;76.25;99427.09;5074495;28;20028;-66
2022/04/29 07:49:52;;;;;;;10.45;5.97;;;;;;;14.51;76.18;99424.88;5067324;28;20025;-66
2022/04/29 07:52:17;;;;;;;9.30;5.50;;;;;;;14.74;74.04;99425.22;5079245;28;20328;-67
2022/04/29 07:54:43;;;;;;;14.90;6.30;;;;;;;14.61;73.58;99429.06;5067334;28;20047;-67
2022/04/29 07:57:08;;;;;;;10.93;6.18;;;;;;;14.79;75.74;99426.00;5074565;28;20051;-67
2022/04/29 07:59:34;;;;;;;12.10;5.95;;;;;;;15.32;73.99;99432.63;5073198;28;20324;-67
2022/04/29 08:01:59;;;;;;;9.35;5.57;;;;;;;15.56;71.25;99427.59;5068088;28;20066;-67
2022/04/29 08:04:25;;;;;;;10.25;5.78;;;;;;;16.12;69.51;99428.66;5079479;28;20096;-67
2022/04/29 08:06:50;;;;;;;9.27;5.65;;;;;;;16.79;67.73;99423.97;5064621;28;20028;-67
2022/04/29 08:09:15;;;;;;;12.68;6.20;;;;;;;17.15;66.32;99422.75;5062776;28;20021;-67
2022/04/29 08:11:41;;;;;;;6.70;4.70;;;;;;;17.61;65.09;99432.75;5062578;28;20024;-67
2022/04/29 08:14:06;;;;;;;8.30;5.25;;;;;;;17.69;66.07;99437.81;5062370;28;20327;-67
2022/04/29 08:16:32;;;;;;;9.20;5.88;;;;;;;17.63;66.27;99435.34;5062509;28;20317;-67
2022/04/29 08:18:58;;;;;;;9.13;5.10;;;;;;;17.94;63.48;99433.34;5062436;28;20029;-67
2022/04/29 08:21:23;;;;;;;7.85;5.10;;;;;;;18.31;63.13;99437.25;5069167;28;20095;-67
2022/04/29 08:23:49;;;;;;;6.55;4.65;;;;;;;18.30;62.09;99434.66;5072828;28;20096;-67
2022/04/29 08:26:14;;;;;;;7.20;5.53;;;;;;;18.04;62.55;99421.44;5074550;28;20280;-67
2022/04/29 08:28:41;;;;;;;10.77;5.53;;;;;;;18.48;60.84;99428.66;5072680;28;20046;-67
2022/04/29 08:31:06;;;;;;;10.68;5.60;;;;;;;18.89;62.86;99430.59;5075135;28;20025;-67
2022/04/29 08:33:33;;;;;;;10.25;5.60;;;;;;;19.51;57.95;99436.88;5066547;28;20055;-67
2022/04/29 08:35:58;;;;;;;13.75;4.07;;;;;;;19.93;57.10;99432.34;5068394;28;20087;-67
2022/04/29 08:38:24;;;;;;;17.67;4.88;;;;;;;20.06;56.39;99436.19;5079876;28;20091;-67
2022/04/29 08:40:49;;;;;;;6.13;4.60;;;;;;;20.29;54.26;99438.75;5074609;28;20073;-67
2022/04/29 08:43:15;;;;;;;7.60;5.25;;;;;;;20.34;54.14;99434.06;5073602;28;20102;-67
2022/04/29 08:45:42;;;;;;;6.65;4.43;;;;;;;20.53;52.68;99437.59;5081198;28;20028;-67
2022/04/29 08:48:08;;;;;;;10.07;4.63;;;;;;;20.63;52.50;99428.22;5068485;28;20028;-67
2022/04/29 08:50:34;;;;;;;7.20;4.82;;;;;;;20.55;54.09;99425.03;5080367;28;20232;-67
2022/04/29 08:53:00;;;;;;;6.90;4.00;;;;;;;20.84;53.27;99432.56;5074017;28;20096;-67
2022/04/29 09:01:03;;;;;;;13.48;4.88;;;;;;;20.79;50.39;99425.69;5071982;28;20267;-67
2022/04/29 09:03:29;;;;;;;5.70;3.60;;;;;;;20.45;44.80;99418.41;5074424;28;20020;-67
2022/04/29 09:05:55;;;;;;;6.43;3.95;;;;;;;20.34;44.87;99415.34;5076994;28;20052;-67
2022/04/29 09:08:22;;;;;;;5.75;3.47;;;;;;;19.89;44.63;99412.03;5070652;28;20029;-67
2022/04/29 09:10:52;;;;;;;6.70;3.35;;;;;;;19.73;41.83;99416.31;5078596;28;20212;-67
2022/04/29 09:13:20;;;;;;;5.50;3.60;;;;;;;19.81;41.53;99408.84;5083913;28;20032;-67
2022/04/29 09:16:00;;;;;;;5.95;2.90;;;;;;;19.80;39.72;99416.94;5085510;28;20024;-67
2022/04/29 09:18:33;;;;;;;7.28;3.63;;;;;;;19.45;39.49;99405.09;5085268;28;20193;-67
2022/04/29 09:21:00;;;;;;;4.53;2.90;;;;;;;19.56;38.94;99407.31;5085524;28;20382;-67
2022/04/29 09:23:29;;;;;;;5.13;3.08;;;;;;;19.35;37.40;99414.44;5086227;28;20024;-67
2022/04/29 09:26:05;;;;;;;5.13;2.95;;;;;;;19.30;38.52;99413.75;5086156;28;20020;-67
2022/04/29 09:28:34;;;;;;;4.90;2.45;;;;;;;19.57;40.08;99412.59;5086146;28;20024;-67
2022/04/29 09:31:00;;;;;;;6.18;3.28;;;;;;;19.60;39.06;99423.13;5086296;28;20020;-67
2022/04/29 09:33:27;;;;;;;5.22;3.03;;;;;;;19.31;38.46;99407.50;5085987;28;20082;-67
2022/04/29 09:35:55;;;;;;;3.97;2.53;;;;;;;19.86;37.97;99401.50;5085843;28;20300;-67
2022/04/29 09:41:06;;;;;;;4.90;2.80;;;;;;;19.20;37.74;99393.69;5065799;28;20028;-67
2022/04/29 09:43:36;;;;;;;3.65;2.20;;;;;;;19.23;38.74;99393.56;5067099;28;20051;-67
2022/04/29 09:46:19;;;;;;;4.20;2.70;;;;;;;19.22;39.72;99400.72;5085768;28;20066;-67
2022/04/29 09:49:04;;;;;;;3.05;2.28;;;;;;;19.70;40.17;99391.53;5085981;28;20021;-67
2022/04/29 09:51:45;;;;;;;5.82;3.00;;;;;;;20.00;37.31;99385.69;5085717;28;20048;-67
2022/04/29 09:54:22;;;;;;;5.03;2.77;;;;;;;20.46;36.26;99398.72;5085432;28;20035;-67
2022/04/29 09:57:10;;;;;;;4.88;2.85;;;;;;;20.77;36.61;99388.31;5085605;28;20028;-67
2022/04/29 09:59:45;;;;;;;6.25;2.88;;;;;;;20.99;35.42;99388.16;5083299;28;20025;-67
2022/04/29 10:02:13;;;;;;;5.10;3.03;;;;;;;21.07;34.87;99384.16;5065400;28;20029;-67
2022/04/29 10:04:44;;;;;;;3.30;2.20;;;;;;;21.11;34.89;99391.06;5067730;28;20025;-67
2022/04/29 10:07:11;;;;;;;3.08;2.05;;;;;;;21.54;33.56;99394.28;5085214;28;20355;-67
2022/04/29 10:09:40;;;;;;;3.20;2.00;;;;;;;21.45;33.59;99397.44;5085247;28;20021;-68
2022/04/29 10:12:17;;;;;;;3.10;2.35;;;;;;;22.15;32.46;99395.50;5085191;28;20034;-68
2022/04/29 10:14:44;;;;;;;9.27;2.45;;;;;;;22.50;33.80;99397.16;5085209;28;20024;-68
2022/04/29 10:22:52;;;;;;;4.88;2.58;;;;;;;21.76;32.53;99382.38;5075796;28;20047;-68
2022/04/29 10:25:24;;;;;;;2.63;2.00;;;;;;;21.49;33.90;99372.22;5084031;28;20028;-68
2022/04/29 10:27:50;;;;;;;10.35;2.58;;;;;;;21.46;33.86;99372.38;5084238;28;20319;-68
2022/04/29 10:30:26;;;;;;;4.32;2.05;;;;;;;20.79;34.41;99386.41;5083908;28;20066;-68
2022/04/29 10:33:02;;;;;;;4.32;2.20;;;;;;;20.36;34.46;99388.53;5076866;28;20220;-68
2022/04/29 10:35:40;;;;;;;5.10;2.22;;;;;;;20.11;35.18;99393.22;5072416;28;20044;-68
2022/04/29 10:38:18;;;;;;;5.68;2.80;;;;;;;20.15;34.86;99385.03;5073963;28;20335;-68
2022/04/29 10:40:45;;;;;;;5.38;2.95;;;;;;;20.49;33.92;99382.53;5073563;28;20029;-68
2022/04/29 10:43:18;;;;;;;6.57;2.85;;;;;;;20.46;34.53;99382.69;5078220;28;20266;-68
2022/04/29 10:46:16;;;;;;;3.50;2.53;;;;;;;20.15;35.31;99374.34;5069854;28;20028;-68
2022/04/29 10:48:42;;;;;;;3.92;2.30;;;;;;;20.25;34.48;99372.97;5063582;28;20029;-68
2022/04/29 10:51:11;;;;;;;3.67;2.33;;;;;;;19.89;33.90;99363.06;5063504;28;20021;-68
2022/04/29 10:53:39;;;;;;;4.82;2.95;;;;;;;20.07;34.51;99368.47;5072511;28;20095;-68
2022/04/29 10:56:26;;;;;;;3.00;2.22;;;;;;;20.51;34.28;99375.31;5063336;28;20055;-68
2022/04/29 10:58:52;;;;;;;5.35;2.40;;;;;;;20.19;33.60;99377.75;5075840;28;20059;-68
2022/04/29 11:01:21;;;;;;;2.78;2.00;;;;;;;20.16;33.04;99356.50;5066844;28;20060;-68
2022/04/29 11:03:47;;;;;;;2.67;2.00;;;;;;;20.00;34.51;99356.28;5063258;28;20035;-68
2022/04/29 11:06:14;;;;;;;1.75;1.60;;;;;;;20.21;35.23;99355.34;5071339;28;20024;-68
2022/04/29 11:08:41;;;;;;;3.65;2.30;;;;;;;20.03;33.71;99345.47;5071243;28;20028;-68
2022/04/29 11:11:07;;;;;;;4.43;2.17;;;;;;;19.97;33.93;99343.09;5062999;28;20377;-68
2022/04/29 11:13:42;;;;;;;4.70;2.38;;;;;;;19.79;33.81;99341.25;5072682;28;20032;-67
2022/04/29 11:16:19;;;;;;;3.97;2.10;;;;;;;19.82;34.69;99325.09;5083112;28;20024;-67
2022/04/29 11:18:45;;;;;;;2.72;2.00;;;;;;;20.37;35.17;99334.97;5083403;28;20020;-67
2022/04/29 11:26:47;;;;;;;3.08;2.03;;;;;;;20.29;34.50;99329.13;5067381;28;20104;-67
2022/04/29 11:29:13;;;;;;;3.45;2.13;;;;;;;19.91;34.43;99313.09;5081251;28;20013;-67
2022/04/29 11:31:40;;;;;;;3.63;2.53;;;;;;;19.85;33.76;99319.63;5082919;28;20024;-67
2022/04/29 11:34:15;;;;;;;4.78;2.40;;;;;;;19.41;34.70;99318.06;5083274;28;20043;-67
2022/04/29 11:36:42;;;;;;;2.70;2.10;;;;;;;19.41;35.58;99323.41;5082723;28;20352;-67
2022/04/29 11:39:15;;;;;;;6.85;2.40;;;;;;;19.69;36.08;99318.56;5083158;28;20056;-67
2022/04/29 11:42:01;;;;;;;4.28;2.35;;;;;;;19.91;35.39;99318.44;5083118;28;20303;-67
2022/04/29 11:44:42;;;;;;;3.53;2.33;;;;;;;19.99;33.54;99319.81;5068706;28;20313;-67
2022/04/29 11:47:07;;;;;;;3.42;2.20;;;;;;;19.59;35.21;99321.72;5074682;28;20048;-67
2022/04/29 11:49:34;;;;;;;4.47;2.17;;;;;;;19.65;34.29;99310.75;5062798;28;20017;-67
2022/04/29 11:52:20;;;;;;;3.20;1.95;;;;;;;19.59;35.12;99314.59;5075136;28;20334;-67
2022/04/29 11:55:06;;;;;;;2.95;2.10;;;;;;;19.54;35.58;99308.56;5065641;28;20046;-67
2022/04/29 11:57:33;;;;;;;7.28;2.58;;;;;;;19.28;35.43;99306.19;5075049;28;20029;-67
2022/04/29 12:00:00;;;;;;;2.78;2.05;;;;;;;19.42;39.01;99309.09;5073055;28;20224;-68
2022/04/29 12:02:27;;;;;;;3.55;2.40;;;;;;;19.48;36.13;99306.16;5082261;28;20208;-68
2022/04/29 12:05:01;;;;;;;5.18;2.10;;;;;;;19.46;35.45;99300.03;5072746;28;20088;-68
2022/04/29 12:07:29;;;;;;;3.78;1.90;;;;;;;19.27;36.59;99305.31;5077169;28;20088;-68